Langdon, New Hampshire
Current Conditions -  °F | °C
As of 1:55 AM on Sunday 26 Oct 2014 (Local Time) from KEEN Reporting Station
Clear Clear  
Wind Chill: 45°   Ceiling: Unl
Heat Index: 45°   Visibility: 7mi
Dew Point: 37°   Wind: 0mph
Humidity: 76%   Direction: NA
Pressure: 29.48"   Gusts: NA
Location:  43.1141°N, 72.3097°W
Report Text: KEEN 260555Z AUTO 00000KT 7SM CLR 07/03 A2948 RMK AO1 10100 20070 57017
Loading
Personal Weather Stations






























Interactive Weather Map
Tropical Storm Tracking
New forecast layout! Learn more

10-Day Weather Forecast

Advertisements
Track Severe Weather on mobile